KVRB/VRB METAR and TAF weather

Enter ICAO airport designator
Station Type Date Time Source
KVRB METAR 2024/04/17 16:53 UTC NOAA

KVRB 171653Z 09012KT 10SM SCT032 27/17 A3016 RMK AO2 SLP211 T02670167


Station Type Date Time Source
KVRB Decoded METAR 2024/04/17 16:53 UTC NOAA

VERO BEACH MUNICIPAL AIRPORT , FL, United States (KVRB) 27-39N 080-25W 10M
Apr 17, 2024 - 12:53 PM EDT / 2024.04.17 1653 UTC
Wind: from the E (090 degrees) at 14 MPH (12 KT):0
Visibility: 10 mile(s):0
Sky conditions: partly cloudy
Temperature: 80.1 F (26.7 C)
Dew Point: 62.1 F (16.7 C)
Relative Humidity: 54%
Pressure (altimeter): 30.16 in. Hg (1021 hPa)
ob: KVRB 171653Z 09012KT 10SM SCT032 27/17 A3016 RMK AO2 SLP211 T02670167
cycle: 17

Station Type Date Time Source
KVRB TAF 2024/04/17 18:42 UTC NOAA